createdAt,value
2019-02-26T08:11:54.437Z,6.80
2019-02-26T08:14:25.495Z,7.40
2019-02-26T08:16:56.223Z,7.47
2019-02-26T08:19:29.611Z,5.57
2019-02-26T08:21:57.112Z,6.27
2019-02-26T08:24:25.954Z,5.43
2019-02-26T08:26:54.795Z,5.00
2019-02-26T08:29:24.514Z,4.77
2019-02-26T08:31:54.946Z,3.93
2019-02-26T08:34:25.094Z,3.83
2019-02-26T08:36:54.029Z,4.30
2019-02-26T08:39:23.033Z,4.30
2019-02-26T08:42:13.942Z,4.10
2019-02-26T08:44:46.203Z,3.27
2019-02-26T08:47:16.848Z,3.93
2019-02-26T08:49:47.620Z,3.00
2019-02-26T08:52:17.477Z,3.30
2019-02-26T08:54:47.236Z,3.10
2019-02-26T08:57:16.168Z,3.47
2019-02-26T08:59:47.158Z,2.80
2019-02-26T09:02:16.568Z,3.00
2019-02-26T09:04:47.791Z,2.73
2019-02-26T09:07:17.118Z,2.60
2019-02-26T09:09:48.111Z,3.00
2019-02-26T09:12:18.007Z,3.07
2019-02-26T09:14:49.870Z,2.63
2019-02-26T09:17:20.875Z,2.87
2019-02-26T09:19:50.864Z,2.90
2019-02-26T09:22:21.154Z,2.60
2019-02-26T09:24:51.955Z,5.10
2019-02-26T09:27:24.329Z,3.00
2019-02-26T09:29:53.536Z,3.20
2019-02-26T09:32:22.801Z,2.60
2019-02-26T09:34:52.099Z,2.53
2019-02-26T09:37:22.281Z,2.67
2019-02-26T09:39:52.057Z,2.60
2019-02-26T09:42:23.299Z,2.80
2019-02-26T09:44:55.422Z,2.63
2019-02-26T09:47:33.254Z,2.53
2019-02-26T09:50:01.501Z,2.07
2019-02-26T09:52:32.634Z,2.00
2019-02-26T09:55:01.124Z,1.93
2019-02-26T09:57:33.778Z,1.90
2019-02-26T10:00:03.358Z,1.80
2019-02-26T10:02:32.528Z,1.80
2019-02-26T10:05:01.638Z,1.90
2019-02-26T10:07:31.317Z,2.63
2019-02-26T10:10:03.507Z,3.03
2019-02-26T10:12:32.809Z,2.60
2019-02-26T10:15:04.716Z,2.70
2019-02-26T10:17:35.774Z,3.00
2019-02-26T10:20:08.596Z,2.60
2019-02-26T10:22:38.512Z,2.20
2019-02-26T10:25:07.925Z,2.03
2019-02-26T10:27:38.812Z,2.50
2019-02-26T10:30:11.222Z,2.90
2019-02-26T10:32:40.583Z,2.47
2019-02-26T10:35:13.998Z,2.30
2019-02-26T10:37:44.408Z,1.87
2019-02-26T10:40:14.560Z,2.13
2019-02-26T10:42:46.114Z,2.20
2019-02-26T10:45:15.468Z,2.20
2019-02-26T10:47:44.500Z,2.43
2019-02-26T10:50:16.355Z,2.23
2019-02-26T10:52:46.256Z,2.57
2019-02-26T10:55:17.626Z,2.50
2019-02-26T10:57:47.814Z,3.10
2019-02-26T11:00:19.133Z,3.23
2019-02-26T11:02:48.458Z,2.40
2019-02-26T11:05:21.428Z,2.57
2019-02-26T11:07:49.463Z,2.90
2019-02-26T11:10:20.783Z,3.30
2019-02-26T11:12:50.536Z,2.90
